首页
METAR-TAF:

METAR-TAF

机场 :

匹尔斯堡, 佛罗里达州, 美国

纬度: 27-29-53N, 经度: 080-22-36W, 海拔: 8米

当前天气观测

该预报发布于24分钟前的12:53 UTC
风速4节,风向北转东北
温度 29°C
湿度 79%
气压 1019 hPa
能見度: 16.1公里
天空无云

METAR: KFPR 161253Z AUTO 02004KT 10SM CLR 29/25 A3010 RMK AO2 SLP191 T02890250

时间: 09:17 (13:17 UTC)

预报

该预报发布于1小时和34分钟前的11:43 UTC
预报有效从16日的 12点(UTC)到 17日的 12点(UTC)
风速节,风向
能見度: 10公里
散云层高于3500英尺
散云层高于25000英尺
附近有阵雨
从 16日的 1300点(UTC)
风速6节,风向
能見度: 10公里
散云层高于3000英尺
散云层高于25000英尺
从 16日的 1800点(UTC)
风速12节,风向
能見度: 10公里
散云层高于4000英尺
散云层高于25000英尺
从 17日的 0200点(UTC)
风速4节,风向
能見度: 10公里
散云层高于2000英尺
多云层高于25000英尺

TAF: KFPR 161143Z 1612/1712 00000KT P6SM VCSH SCT035 SCT250 FM161300 10006KT P6SM SCT030 SCT250 FM161800 10012KT P6SM SCT040 SCT250 FM170200 09004KT P6SM SCT020 BKN250

超过4000个机场的气象观测和天气预报(METAR&TAF报告)。

可查询的气象台以黄色和红色小点在地图上表示。

将鼠标移到小点上方,可查看气象台名称。

然后点击查看天气观测和预报。

如需切换地图:点击带黑十字的绿色按钮放大地图;点击带横线的绿色按钮缩小地图;或者点击绿色箭头查看邻近地区的地图。


METAR-TAF: